Kosmos, Washington
Current Conditions -  °F | °C
As of 2:35 PM on Tuesday 21 Oct 2014 (Local Time) from KCLS Reporting Station
Broken Clouds Broken Clouds  
Wind Chill: 61°   Ceiling: 5000
Heat Index: 61°   Visibility: 10mi
Dew Point: 54°   Wind: 15mph
Humidity: 77%   Direction: 180°S
Pressure: 29.92"   Gusts: 24mph
Location:  46.5485°N, 122.112°W
Report Text: KCLS 212135Z AUTO 18013G21KT 150V210 10SM SCT044 BKN050 BKN055 16/12 A2992 RMK AO2
Loading
Personal Weather Stations






























Interactive Weather Map
Tropical Storm Tracking
New forecast layout! Learn more

10-Day Weather Forecast

Advertisements
Track Severe Weather on mobile